createdAt,value
2022-11-04T00:00:43.373Z,87.00
2022-11-04T00:03:13.995Z,87.00
2022-11-04T00:05:45.584Z,87.00
2022-11-04T00:08:26.602Z,87.00
2022-11-04T00:11:13.673Z,87.00
2022-11-04T00:13:42.908Z,87.00
2022-11-04T00:16:29.485Z,87.00
2022-11-04T00:19:01.179Z,87.00
2022-11-04T00:21:47.849Z,87.00
2022-11-04T00:24:34.630Z,87.00
2022-11-04T00:27:21.519Z,87.00
2022-11-04T00:29:50.601Z,87.00
2022-11-04T00:32:37.155Z,87.00
2022-11-04T00:35:08.908Z,87.00
2022-11-04T00:37:39.534Z,87.00
2022-11-04T00:40:10.764Z,87.00
2022-11-04T00:42:39.801Z,87.00
2022-11-04T00:45:09.862Z,87.00
2022-11-04T00:47:39.378Z,87.00
2022-11-04T00:50:10.948Z,87.00
2022-11-04T00:52:40.106Z,87.00
2022-11-04T00:55:10.204Z,87.00
2022-11-04T00:57:39.425Z,87.20
2022-11-04T01:00:09.954Z,87.20
2022-11-04T01:02:39.165Z,87.20
2022-11-04T01:05:11.007Z,87.20
2022-11-04T01:07:43.668Z,87.10
2022-11-04T01:10:13.099Z,87.10
2022-11-04T01:12:42.168Z,87.10
2022-11-04T01:15:12.175Z,87.20
2022-11-04T01:17:41.309Z,88.10
2022-11-04T01:20:14.232Z,87.40
2022-11-04T01:22:43.484Z,87.50
2022-11-04T01:25:12.629Z,87.50
2022-11-04T01:27:41.708Z,87.60
2022-11-04T01:30:12.529Z,88.50
2022-11-04T01:32:41.641Z,87.70
2022-11-04T01:35:12.198Z,87.50
2022-11-04T01:37:41.375Z,87.60
2022-11-04T01:40:11.522Z,87.60
2022-11-04T01:42:40.967Z,87.60
2022-11-04T01:45:15.825Z,87.70
2022-11-04T01:47:50.138Z,87.50
2022-11-04T01:50:25.111Z,87.60
2022-11-04T01:52:57.451Z,87.70
2022-11-04T01:55:30.057Z,87.80
2022-11-04T01:58:02.583Z,87.90
2022-11-04T02:00:32.029Z,88.00
2022-11-04T02:03:05.631Z,88.10
2022-11-04T02:05:36.481Z,88.20
2022-11-04T02:08:07.865Z,88.20
2022-11-04T02:10:37.681Z,88.20
2022-11-04T02:13:06.387Z,88.20
2022-11-04T02:15:44.169Z,88.30
2022-11-04T02:18:39.764Z,88.40
2022-11-04T02:21:44.238Z,88.40
2022-11-04T02:24:44.088Z,88.50
2022-11-04T02:27:26.494Z,88.50
2022-11-04T02:30:06.984Z,88.40
2022-11-04T02:33:11.063Z,88.50
2022-11-04T02:35:51.645Z,88.70
2022-11-04T02:38:31.400Z,88.70
2022-11-04T02:41:07.670Z,88.70
2022-11-04T02:43:43.253Z,88.80
2022-11-04T02:46:21.016Z,89.00
2022-11-04T02:48:55.131Z,88.90
2022-11-04T02:51:28.350Z,89.10
2022-11-04T02:54:05.812Z,89.20
2022-11-04T02:56:40.046Z,89.30
2022-11-04T02:59:13.603Z,89.30
2022-11-04T03:01:47.059Z,89.40
2022-11-04T03:04:18.356Z,89.40
2022-11-04T03:06:50.245Z,89.50
2022-11-04T03:09:22.656Z,89.60
2022-11-04T03:11:57.033Z,89.60
2022-11-04T03:14:32.609Z,89.50
2022-11-04T03:17:07.741Z,89.60
2022-11-04T03:19:42.946Z,89.60
2022-11-04T03:22:14.459Z,89.70
2022-11-04T03:24:48.078Z,89.60
2022-11-04T03:27:26.603Z,89.70
2022-11-04T03:30:01.076Z,89.70
2022-11-04T03:32:42.531Z,89.70
2022-11-04T03:35:11.989Z,89.80
2022-11-04T03:37:40.876Z,89.80
2022-11-04T03:40:11.538Z,89.60
2022-11-04T03:42:46.241Z,89.70
2022-11-04T03:45:15.875Z,89.80
2022-11-04T03:47:46.369Z,89.80
2022-11-04T03:50:21.975Z,89.80
2022-11-04T03:52:50.977Z,89.70
2022-11-04T03:55:20.187Z,89.80
2022-11-04T03:57:57.530Z,89.80
2022-11-04T04:00:30.694Z,89.80
2022-11-04T04:03:10.966Z,89.70
2022-11-04T04:05:44.938Z,89.70
2022-11-04T04:08:21.058Z,89.70
2022-11-04T04:10:59.815Z,89.80
2022-11-04T04:13:40.514Z,89.80
2022-11-04T04:16:13.416Z,89.70
2022-11-04T04:18:52.705Z,89.60
2022-11-04T04:21:30.269Z,89.60
2022-11-04T04:24:19.962Z,89.70
2022-11-04T04:27:08.375Z,89.70
2022-11-04T04:29:39.069Z,89.70
2022-11-04T04:32:08.809Z,89.70
2022-11-04T04:34:39.386Z,89.70
2022-11-04T04:37:11.669Z,89.80
2022-11-04T04:40:03.540Z,89.80
2022-11-04T04:42:51.363Z,89.80
2022-11-04T04:45:24.666Z,89.80
2022-11-04T04:47:54.060Z,89.90
2022-11-04T04:50:27.259Z,89.90
2022-11-04T04:52:59.488Z,89.90
2022-11-04T04:55:28.561Z,89.90
2022-11-04T04:57:57.564Z,90.00
2022-11-04T05:00:26.610Z,89.90
2022-11-04T05:02:55.589Z,89.90
2022-11-04T05:05:27.023Z,89.80
2022-11-04T05:07:56.013Z,89.80
2022-11-04T05:10:25.017Z,89.80
2022-11-04T05:13:11.138Z,90.30
2022-11-04T05:15:40.113Z,89.80
2022-11-04T05:18:09.373Z,89.80
2022-11-04T05:20:40.437Z,89.80
2022-11-04T05:23:12.132Z,90.00
2022-11-04T05:25:41.557Z,90.00
2022-11-04T05:28:10.948Z,90.00
2022-11-04T05:30:40.074Z,90.00
2022-11-04T05:33:09.220Z,90.00
2022-11-04T05:35:39.782Z,89.90
2022-11-04T05:38:08.799Z,89.80
2022-11-04T05:40:38.018Z,89.80
2022-11-04T05:43:08.191Z,89.80
2022-11-04T05:45:37.320Z,89.90
2022-11-04T05:48:07.273Z,90.00
2022-11-04T05:50:36.288Z,90.00
2022-11-04T05:53:06.865Z,90.00
2022-11-04T05:55:36.033Z,90.00
2022-11-04T05:58:05.003Z,89.90
2022-11-04T06:00:34.023Z,90.00
2022-11-04T06:03:03.150Z,90.00
2022-11-04T06:05:32.618Z,90.00
2022-11-04T06:08:01.665Z,90.00
2022-11-04T06:10:32.113Z,90.00
2022-11-04T06:13:01.307Z,90.00
2022-11-04T06:15:30.405Z,90.00
2022-11-04T06:17:59.535Z,89.90
2022-11-04T06:20:28.518Z,89.90
2022-11-04T06:22:57.484Z,89.90
2022-11-04T06:25:26.439Z,89.90
2022-11-04T06:27:56.857Z,89.90
2022-11-04T06:30:25.842Z,89.90
2022-11-04T06:32:54.895Z,89.90
2022-11-04T06:35:23.948Z,89.80
2022-11-04T06:37:53.161Z,89.90
2022-11-04T06:40:22.277Z,89.90
2022-11-04T06:42:51.937Z,89.90
2022-11-04T06:45:22.511Z,89.80
2022-11-04T06:47:51.504Z,89.80
2022-11-04T06:50:20.553Z,89.80
2022-11-04T06:52:49.591Z,89.80
2022-11-04T06:55:18.609Z,89.70
2022-11-04T06:57:47.612Z,89.70
2022-11-04T07:00:17.112Z,89.60
2022-11-04T07:02:47.610Z,89.70
2022-11-04T07:05:17.702Z,89.60
2022-11-04T07:07:46.940Z,89.60
2022-11-04T07:10:17.188Z,89.50
2022-11-04T07:12:46.336Z,89.60
2022-11-04T07:15:15.422Z,89.60
2022-11-04T07:17:44.973Z,89.60
2022-11-04T07:20:15.479Z,89.90
2022-11-04T07:22:44.493Z,89.70
2022-11-04T07:25:14.665Z,89.60
2022-11-04T07:27:43.684Z,89.70
2022-11-04T07:30:13.898Z,89.80
2022-11-04T07:32:42.961Z,89.70
2022-11-04T07:35:12.163Z,89.70
2022-11-04T07:37:42.657Z,89.80
2022-11-04T07:40:12.672Z,89.70
2022-11-04T07:42:47.368Z,89.80
2022-11-04T07:45:19.966Z,89.80
2022-11-04T07:47:49.067Z,89.80
2022-11-04T07:50:18.344Z,89.80
2022-11-04T07:52:50.976Z,89.90
2022-11-04T07:55:21.343Z,89.90
2022-11-04T07:57:50.419Z,89.80
2022-11-04T08:00:20.457Z,89.90
2022-11-04T08:02:49.540Z,89.90
2022-11-04T08:05:18.908Z,90.00
2022-11-04T08:07:49.284Z,90.00
2022-11-04T08:10:18.549Z,90.00
2022-11-04T08:12:48.220Z,90.10
2022-11-04T08:15:17.537Z,90.10
2022-11-04T08:17:46.553Z,90.10
2022-11-04T08:20:15.684Z,90.10
2022-11-04T08:22:44.723Z,90.10
2022-11-04T08:25:15.129Z,90.10
2022-11-04T08:27:44.266Z,90.10
2022-11-04T08:30:14.220Z,90.40
2022-11-04T08:32:44.420Z,90.10
2022-11-04T08:35:13.544Z,90.10
2022-11-04T08:37:42.538Z,90.10
2022-11-04T08:40:12.232Z,90.10
2022-11-04T08:42:42.670Z,90.00
2022-11-04T08:45:11.974Z,89.90
2022-11-04T08:47:43.925Z,89.90
2022-11-04T08:50:12.931Z,89.70
2022-11-04T08:52:41.924Z,89.60
2022-11-04T08:55:11.620Z,89.40
2022-11-04T08:57:42.067Z,89.20
2022-11-04T09:00:12.602Z,88.90
2022-11-04T09:02:41.539Z,88.60
2022-11-04T09:05:10.836Z,88.40
2022-11-04T09:07:39.983Z,88.30
2022-11-04T09:10:10.459Z,88.10
2022-11-04T09:12:39.479Z,87.90
2022-11-04T09:15:10.824Z,87.70
2022-11-04T09:17:40.263Z,87.50
2022-11-04T09:20:10.436Z,87.20
2022-11-04T09:22:43.121Z,87.00
2022-11-04T09:25:14.813Z,86.80
2022-11-04T09:27:44.044Z,86.60
2022-11-04T09:30:18.201Z,86.30
2022-11-04T09:32:52.426Z,86.00
2022-11-04T09:35:21.917Z,85.90
2022-11-04T09:37:51.216Z,85.70
2022-11-04T09:40:23.075Z,85.60
2022-11-04T09:43:15.592Z,85.50
2022-11-04T09:45:46.683Z,85.30
2022-11-04T09:48:26.321Z,85.20
2022-11-04T09:50:58.541Z,85.10
2022-11-04T09:53:35.484Z,85.00
2022-11-04T09:56:08.062Z,85.00
2022-11-04T09:58:40.616Z,84.80
2022-11-04T10:01:23.357Z,84.80
2022-11-04T10:04:07.773Z,85.40
2022-11-04T10:06:46.296Z,84.40
2022-11-04T10:09:31.655Z,84.30
2022-11-04T10:12:12.175Z,84.00
2022-11-04T10:14:58.022Z,83.90
2022-11-04T10:17:47.385Z,83.70
2022-11-04T10:20:26.014Z,83.60
2022-11-04T10:22:59.327Z,83.30
2022-11-04T10:25:37.089Z,83.00
2022-11-04T10:28:10.695Z,82.70
2022-11-04T10:30:43.859Z,82.40
2022-11-04T10:33:22.622Z,82.10
2022-11-04T10:35:57.252Z,81.70
2022-11-04T10:38:35.786Z,81.60
2022-11-04T10:41:13.924Z,81.40
2022-11-04T10:43:43.843Z,81.30
2022-11-04T10:46:28.208Z,80.90
2022-11-04T10:49:04.826Z,80.60
2022-11-04T10:51:33.808Z,80.60
2022-11-04T10:54:07.047Z,80.40
2022-11-04T10:56:41.453Z,80.00
2022-11-04T10:59:23.650Z,79.90
2022-11-04T11:01:54.798Z,79.80
2022-11-04T11:04:31.846Z,79.80
2022-11-04T11:07:03.121Z,79.90
2022-11-04T11:09:34.285Z,79.90
2022-11-04T11:12:29.385Z,79.80
2022-11-04T11:14:56.030Z,79.70
2022-11-04T11:17:27.350Z,79.50
2022-11-04T11:19:59.167Z,79.30
2022-11-04T11:22:32.953Z,79.30
2022-11-04T11:25:22.416Z,79.30
2022-11-04T11:27:54.517Z,79.00
2022-11-04T11:30:27.229Z,79.00
2022-11-04T11:33:00.231Z,78.80
2022-11-04T11:35:41.643Z,78.80
2022-11-04T11:38:23.296Z,78.70
2022-11-04T11:41:23.192Z,78.50
2022-11-04T11:43:47.101Z,78.60
2022-11-04T11:46:23.765Z,78.60
2022-11-04T11:48:57.803Z,78.40
2022-11-04T11:51:32.697Z,78.30
2022-11-04T11:54:33.868Z,78.20
2022-11-04T11:57:14.253Z,78.00
2022-11-04T12:02:51.732Z,78.30
2022-11-04T12:11:46.737Z,78.30
2022-11-04T12:14:22.700Z,78.20
2022-11-04T12:17:00.208Z,78.20
2022-11-04T12:19:57.621Z,78.00
2022-11-04T12:22:34.629Z,77.90
2022-11-04T12:25:15.971Z,77.90
2022-11-04T12:27:50.689Z,77.80
2022-11-04T12:30:29.026Z,77.90
2022-11-04T12:33:18.093Z,78.00
2022-11-04T12:36:07.863Z,78.00
2022-11-04T12:39:11.429Z,78.20
2022-11-04T12:44:49.212Z,78.20
2022-11-04T12:47:30.712Z,78.30
2022-11-04T12:50:05.540Z,78.30
2022-11-04T12:53:01.682Z,78.30
2022-11-04T12:55:43.783Z,78.30
2022-11-04T12:58:31.748Z,78.30
2022-11-04T13:01:05.097Z,78.20
2022-11-04T13:03:39.944Z,78.30
2022-11-04T13:06:14.239Z,78.30
2022-11-04T13:08:51.034Z,78.40
2022-11-04T13:11:23.913Z,78.50
2022-11-04T13:14:02.299Z,78.50
2022-11-04T13:16:35.690Z,78.40
2022-11-04T13:19:06.895Z,78.40
2022-11-04T13:21:39.713Z,78.30
2022-11-04T13:24:21.768Z,78.30
2022-11-04T13:26:52.693Z,78.20
2022-11-04T13:29:25.819Z,78.20
2022-11-04T13:32:03.022Z,78.20
2022-11-04T13:34:41.402Z,78.30
2022-11-04T13:37:18.428Z,78.40
2022-11-04T13:39:52.348Z,78.40
2022-11-04T13:43:20.945Z,78.50
2022-11-04T13:45:54.778Z,78.60
2022-11-04T13:48:27.778Z,78.70
2022-11-04T13:51:00.617Z,78.70
2022-11-04T13:53:47.078Z,78.80
2022-11-04T13:56:35.084Z,79.00
2022-11-04T13:59:09.061Z,79.10
2022-11-04T14:01:39.501Z,79.20
2022-11-04T14:04:27.973Z,79.30
2022-11-04T14:06:59.969Z,79.50
2022-11-04T14:09:54.639Z,79.50
2022-11-04T14:12:41.231Z,79.60
2022-11-04T14:16:02.279Z,79.60
2022-11-04T14:18:34.559Z,79.60
2022-11-04T14:21:09.061Z,79.60
2022-11-04T14:23:40.184Z,79.80
2022-11-04T14:26:11.835Z,79.80
2022-11-04T14:28:45.095Z,80.00
2022-11-04T14:31:17.844Z,80.10
2022-11-04T14:33:56.513Z,80.30
2022-11-04T14:36:38.398Z,80.40
2022-11-04T14:39:22.148Z,80.50
2022-11-04T14:42:01.864Z,80.50
2022-11-04T14:44:33.960Z,80.70
2022-11-04T14:47:17.544Z,80.80
2022-11-04T14:49:50.386Z,80.90
2022-11-04T14:52:27.226Z,80.90
2022-11-04T14:54:59.733Z,81.00
2022-11-04T14:57:31.598Z,81.00
2022-11-04T15:00:00.738Z,81.10
2022-11-04T15:02:33.953Z,81.20
2022-11-04T15:05:04.623Z,81.30
2022-11-04T15:07:36.756Z,81.50
2022-11-04T15:10:21.260Z,81.60
2022-11-04T15:12:54.667Z,81.70
2022-11-04T15:15:35.035Z,81.80
2022-11-04T15:18:08.057Z,81.80
2022-11-04T15:20:46.283Z,81.90
2022-11-04T15:23:18.820Z,82.00
2022-11-04T15:25:49.265Z,82.20
2022-11-04T15:28:22.251Z,82.30
2022-11-04T15:31:16.606Z,82.50
2022-11-04T15:33:48.191Z,82.70
2022-11-04T15:36:22.805Z,82.60
2022-11-04T15:38:55.327Z,82.70
2022-11-04T15:41:43.001Z,82.70
2022-11-04T15:44:21.211Z,82.80
2022-11-04T15:46:52.389Z,82.90
2022-11-04T15:49:25.470Z,83.00
2022-11-04T15:51:59.594Z,83.10
2022-11-04T15:54:31.716Z,83.20
2022-11-04T15:57:03.993Z,83.20
2022-11-04T15:59:36.560Z,83.30
2022-11-04T16:02:16.782Z,83.50
2022-11-04T16:04:49.209Z,83.60
2022-11-04T16:07:25.902Z,83.70
2022-11-04T16:09:56.628Z,83.80
2022-11-04T16:12:31.019Z,83.80
2022-11-04T16:15:03.569Z,83.80
2022-11-04T16:17:33.647Z,83.90
2022-11-04T16:20:06.210Z,83.90
2022-11-04T16:22:40.772Z,83.90
2022-11-04T16:25:20.996Z,84.80
2022-11-04T16:27:50.513Z,84.10
2022-11-04T16:30:21.719Z,84.20
2022-11-04T16:32:54.054Z,84.30
2022-11-04T16:35:25.400Z,84.30
2022-11-04T16:37:57.224Z,84.40
2022-11-04T16:40:26.745Z,84.50
2022-11-04T16:42:56.008Z,84.30
2022-11-04T16:45:28.176Z,84.40
2022-11-04T16:47:57.642Z,84.60
2022-11-04T16:50:27.162Z,84.80
2022-11-04T16:52:57.733Z,84.90
2022-11-04T16:55:27.840Z,85.00
2022-11-04T16:58:00.866Z,85.10
2022-11-04T17:00:33.047Z,85.10
2022-11-04T17:03:05.450Z,85.20
2022-11-04T17:05:34.632Z,85.20
2022-11-04T17:08:06.304Z,85.40
2022-11-04T17:10:36.410Z,85.50
2022-11-04T17:13:06.753Z,85.70
2022-11-04T17:15:35.834Z,85.90
2022-11-04T17:18:05.071Z,86.00
2022-11-04T17:20:34.551Z,86.00
2022-11-04T17:23:05.170Z,86.10
2022-11-04T17:25:34.262Z,86.20
2022-11-04T17:28:03.419Z,86.30
2022-11-04T17:30:34.866Z,86.40
2022-11-04T17:33:06.533Z,86.40
2022-11-04T17:35:38.571Z,86.50
2022-11-04T17:38:11.086Z,86.60
2022-11-04T17:40:54.048Z,86.60
2022-11-04T17:43:40.500Z,86.70
2022-11-04T17:46:26.126Z,86.70
2022-11-04T17:48:55.181Z,86.60
2022-11-04T17:51:24.265Z,86.60
2022-11-04T17:53:54.818Z,86.60
2022-11-04T17:56:25.242Z,86.60
2022-11-04T17:58:54.595Z,86.70
2022-11-04T18:01:24.593Z,86.70
2022-11-04T18:03:54.583Z,86.80
2022-11-04T18:06:24.797Z,86.80
2022-11-04T18:08:56.027Z,86.90
2022-11-04T18:11:44.374Z,87.00
2022-11-04T18:14:16.969Z,87.10
2022-11-04T18:16:48.878Z,87.10
2022-11-04T18:19:19.595Z,87.20
2022-11-04T18:21:50.568Z,87.20
2022-11-04T18:24:21.164Z,87.30
2022-11-04T18:26:50.286Z,87.30
2022-11-04T18:29:19.666Z,87.10
2022-11-04T18:31:49.805Z,87.10
2022-11-04T18:34:20.507Z,87.10
2022-11-04T18:36:50.112Z,87.10
2022-11-04T18:39:20.882Z,87.10
2022-11-04T18:41:50.482Z,87.10
2022-11-04T18:44:21.395Z,87.10
2022-11-04T18:46:51.529Z,87.10
2022-11-04T18:49:21.340Z,87.10
2022-11-04T18:51:50.382Z,87.00
2022-11-04T18:54:21.061Z,87.00
2022-11-04T18:56:50.090Z,87.00
2022-11-04T18:59:19.144Z,87.00
2022-11-04T19:01:50.250Z,87.00
2022-11-04T19:04:19.346Z,87.20
2022-11-04T19:06:48.506Z,87.10
2022-11-04T19:09:45.271Z,87.10
2022-11-04T19:12:26.508Z,87.10
2022-11-04T19:14:55.517Z,87.10
2022-11-04T19:17:25.318Z,87.10
2022-11-04T19:19:54.340Z,87.20
2022-11-04T19:22:23.363Z,87.10
2022-11-04T19:24:52.625Z,87.10
2022-11-04T19:27:25.026Z,87.20
2022-11-04T19:29:54.471Z,87.30
2022-11-04T19:32:23.730Z,87.30
2022-11-04T19:34:54.121Z,87.40
2022-11-04T19:37:23.086Z,87.40
2022-11-04T19:39:52.227Z,87.50
2022-11-04T19:42:40.021Z,87.50
2022-11-04T19:45:10.844Z,87.50
2022-11-04T19:47:39.887Z,87.60
2022-11-04T19:50:09.552Z,87.70
2022-11-04T19:52:38.661Z,87.70
2022-11-04T19:55:08.787Z,87.70
2022-11-04T19:57:39.513Z,87.80
2022-11-04T20:00:10.332Z,88.00
2022-11-04T20:02:43.230Z,88.00
2022-11-04T20:05:12.445Z,88.10
2022-11-04T20:07:41.596Z,88.20
2022-11-04T20:10:11.222Z,88.10
2022-11-04T20:12:58.867Z,88.20
2022-11-04T20:15:28.852Z,88.40
2022-11-04T20:17:57.993Z,88.40
2022-11-04T20:20:27.195Z,88.40
2022-11-04T20:22:56.296Z,88.40
2022-11-04T20:25:25.378Z,88.40
2022-11-04T20:27:55.798Z,88.40
2022-11-04T20:30:25.166Z,88.50
2022-11-04T20:32:54.161Z,88.50
2022-11-04T20:35:23.445Z,88.60
2022-11-04T20:37:52.519Z,88.60
2022-11-04T20:40:21.847Z,88.70
2022-11-04T20:42:51.091Z,88.60
2022-11-04T20:45:21.923Z,88.70
2022-11-04T20:47:53.012Z,88.70
2022-11-04T20:50:22.113Z,88.70
2022-11-04T20:52:51.592Z,88.70
2022-11-04T20:55:20.663Z,89.60
2022-11-04T20:57:49.909Z,88.70
2022-11-04T21:00:19.747Z,88.70
2022-11-04T21:02:50.594Z,88.80
2022-11-04T21:05:21.032Z,88.90
2022-11-04T21:07:50.232Z,89.20
2022-11-04T21:10:19.784Z,89.40
2022-11-04T21:12:49.194Z,90.10
2022-11-04T21:15:33.975Z,89.50
2022-11-04T21:18:04.639Z,89.50
2022-11-04T21:20:37.713Z,89.50
2022-11-04T21:23:07.373Z,89.40
2022-11-04T21:25:44.456Z,89.40
2022-11-04T21:28:14.780Z,89.50
2022-11-04T21:30:47.809Z,90.10
2022-11-04T21:33:18.913Z,89.60
2022-11-04T21:35:48.868Z,89.60
2022-11-04T21:38:19.473Z,89.70
2022-11-04T21:40:51.779Z,89.80
2022-11-04T21:43:21.126Z,89.90
2022-11-04T21:45:50.136Z,90.00
2022-11-04T21:48:21.255Z,90.10
2022-11-04T21:50:50.633Z,90.10
2022-11-04T21:53:19.794Z,90.00
2022-11-04T21:55:49.034Z,90.00
2022-11-04T21:58:18.535Z,90.00
2022-11-04T22:00:47.999Z,90.00
2022-11-04T22:03:17.268Z,89.80
2022-11-04T22:05:57.003Z,89.70
2022-11-04T22:08:26.861Z,89.70
2022-11-04T22:10:56.823Z,89.60
2022-11-04T22:13:27.158Z,89.50
2022-11-04T22:16:03.550Z,89.50
2022-11-04T22:18:36.580Z,89.50
2022-11-04T22:21:10.426Z,89.50
2022-11-04T22:23:39.951Z,89.50
2022-11-04T22:26:11.600Z,89.50
2022-11-04T22:28:40.884Z,90.20
2022-11-04T22:31:11.981Z,89.70
2022-11-04T22:33:41.328Z,89.70
2022-11-04T22:36:13.182Z,89.80
2022-11-04T22:38:44.233Z,89.80
2022-11-04T22:41:16.456Z,89.80
2022-11-04T22:43:45.537Z,89.80
2022-11-04T22:46:16.447Z,89.80
2022-11-04T22:48:45.596Z,89.90
2022-11-04T22:51:16.575Z,90.00
2022-11-04T22:53:50.081Z,90.00
2022-11-04T22:56:23.256Z,90.00
2022-11-04T22:58:54.383Z,90.00
2022-11-04T23:01:24.407Z,90.00
2022-11-04T23:03:53.769Z,90.00
2022-11-04T23:06:25.099Z,89.90
2022-11-04T23:08:59.649Z,89.90
2022-11-04T23:11:47.871Z,90.00
2022-11-04T23:14:36.576Z,89.80
2022-11-04T23:17:32.057Z,89.90
2022-11-04T23:20:01.164Z,90.00
2022-11-04T23:22:49.421Z,89.90
2022-11-04T23:25:18.781Z,89.80
2022-11-04T23:28:08.390Z,89.70
2022-11-04T23:30:39.988Z,89.70
2022-11-04T23:33:11.916Z,89.80
2022-11-04T23:36:00.407Z,89.80
2022-11-04T23:38:31.461Z,90.00
2022-11-04T23:41:20.327Z,90.00
2022-11-04T23:43:49.510Z,90.10
2022-11-04T23:46:42.188Z,90.10
2022-11-04T23:49:29.470Z,90.10
2022-11-04T23:52:15.941Z,90.50
2022-11-04T23:55:03.761Z,90.10
2022-11-04T23:57:49.965Z,90.10
